createdAt,value
2018-04-18T00:00:39.455Z,12.23
2018-04-18T00:03:07.148Z,11.03
2018-04-18T00:05:34.737Z,10.27
2018-04-18T00:08:02.338Z,11.50
2018-04-18T00:10:29.956Z,10.70
2018-04-18T00:12:57.553Z,9.87
2018-04-18T00:15:25.177Z,9.93
2018-04-18T00:17:52.779Z,9.70
2018-04-18T00:20:20.388Z,11.10
2018-04-18T00:22:48.009Z,11.37
2018-04-18T00:25:15.599Z,12.27
2018-04-18T00:27:43.216Z,11.60
2018-04-18T00:30:10.834Z,11.80
2018-04-18T00:32:38.440Z,13.73
2018-04-18T00:35:06.812Z,10.60
2018-04-18T00:37:35.166Z,10.73
2018-04-18T00:40:02.783Z,10.30
2018-04-18T00:42:30.381Z,12.17
2018-04-18T00:44:57.968Z,10.80
2018-04-18T00:47:26.355Z,12.03
2018-04-18T00:49:54.719Z,11.60
2018-04-18T00:52:22.337Z,11.10
2018-04-18T00:54:49.927Z,12.30
2018-04-18T00:57:17.518Z,13.43
2018-04-18T00:59:45.897Z,11.33
2018-04-18T01:02:14.280Z,11.70
2018-04-18T01:04:42.664Z,12.80
2018-04-18T01:07:10.252Z,11.83
2018-04-18T01:09:43.005Z,11.60
2018-04-18T01:12:11.364Z,11.53
2018-04-18T01:14:39.716Z,11.77
2018-04-18T01:17:07.329Z,14.10
2018-04-18T01:19:34.962Z,12.20
2018-04-18T01:22:03.354Z,13.10
2018-04-18T01:24:31.695Z,11.47
2018-04-18T01:26:59.288Z,11.70
2018-04-18T01:29:27.658Z,11.33
2018-04-18T01:31:55.243Z,11.60
2018-04-18T01:34:22.871Z,13.93
2018-04-18T01:36:50.502Z,12.53
2018-04-18T01:39:18.080Z,17.07
2018-04-18T01:41:45.693Z,11.50
2018-04-18T01:44:13.530Z,11.23
2018-04-18T01:46:41.155Z,11.40
2018-04-18T01:49:20.631Z,11.87
2018-04-18T01:51:49.024Z,13.00
2018-04-18T01:54:17.383Z,13.23
2018-04-18T01:56:44.975Z,12.30
2018-04-18T01:59:12.613Z,11.37
2018-04-18T02:01:40.195Z,10.77
2018-04-18T02:04:07.852Z,11.80
2018-04-18T02:06:36.219Z,11.83
2018-04-18T02:09:04.573Z,11.53
2018-04-18T02:11:32.200Z,12.57
2018-04-18T02:13:59.795Z,12.13
2018-04-18T02:16:27.413Z,12.53
2018-04-18T02:18:54.996Z,13.70
2018-04-18T02:21:22.612Z,15.13
2018-04-18T02:23:50.987Z,14.47
2018-04-18T02:26:19.341Z,11.73
2018-04-18T02:28:46.964Z,11.40
2018-04-18T02:31:14.595Z,12.27
2018-04-18T02:33:42.940Z,14.30
2018-04-18T02:36:10.552Z,11.10
2018-04-18T02:38:39.078Z,12.10
2018-04-18T02:41:06.704Z,11.97
2018-04-18T02:43:34.291Z,12.50
2018-04-18T02:46:01.888Z,11.63
2018-04-18T02:48:30.268Z,11.83
2018-04-18T02:50:58.612Z,11.73
2018-04-18T02:53:26.237Z,11.20
2018-04-18T02:55:53.821Z,12.10
2018-04-18T02:58:21.418Z,11.50
2018-04-18T03:00:49.816Z,12.23
2018-04-18T03:03:18.164Z,14.10
2018-04-18T03:05:45.776Z,12.70
2018-04-18T03:08:13.371Z,11.83
2018-04-18T03:10:40.962Z,11.93
2018-04-18T03:13:09.341Z,14.97
2018-04-18T03:15:37.710Z,19.03
2018-04-18T03:18:05.335Z,12.27
2018-04-18T03:20:32.935Z,13.03
2018-04-18T03:23:00.523Z,14.00
2018-04-18T03:25:28.157Z,12.23
2018-04-18T03:27:55.756Z,12.50
2018-04-18T03:30:26.855Z,12.53
2018-04-18T03:32:54.469Z,12.70
2018-04-18T03:35:32.267Z,13.70
2018-04-18T03:37:59.884Z,12.73
2018-04-18T03:40:27.471Z,15.20
2018-04-18T03:42:55.811Z,13.13
2018-04-18T03:45:23.421Z,13.33
2018-04-18T03:47:51.030Z,12.10
2018-04-18T03:50:18.624Z,14.27
2018-04-18T03:52:47.000Z,13.33
2018-04-18T03:55:15.352Z,16.97
2018-04-18T03:57:42.981Z,12.07
2018-04-18T04:00:11.456Z,12.63
2018-04-18T04:02:39.088Z,12.83
2018-04-18T04:05:07.440Z,12.43
2018-04-18T04:07:35.070Z,12.37
2018-04-18T04:10:02.648Z,12.63
2018-04-18T04:12:30.271Z,13.67
2018-04-18T04:14:57.891Z,15.67
2018-04-18T04:17:37.412Z,12.80
2018-04-18T04:20:16.962Z,13.50
2018-04-18T04:22:56.372Z,12.97
2018-04-18T04:25:25.000Z,13.70
2018-04-18T04:27:52.592Z,13.50
2018-04-18T04:30:20.204Z,16.17
2018-04-18T04:32:47.815Z,13.23
2018-04-18T04:35:15.400Z,13.63
2018-04-18T04:37:43.002Z,13.50
2018-04-18T04:40:11.400Z,13.20
2018-04-18T04:42:39.891Z,12.83
2018-04-18T04:45:07.475Z,13.93
2018-04-18T04:47:35.376Z,15.73
2018-04-18T04:50:03.951Z,13.33
2018-04-18T04:52:31.537Z,14.70
2018-04-18T04:54:59.931Z,15.87
2018-04-18T04:57:28.297Z,13.57
2018-04-18T05:00:06.773Z,13.63
2018-04-18T05:02:34.411Z,13.60
2018-04-18T05:07:59.098Z,12.90
2018-04-18T05:10:27.516Z,15.13
2018-04-18T05:12:55.170Z,12.67
2018-04-18T05:15:22.772Z,14.03
2018-04-18T05:17:50.488Z,14.53
2018-04-18T05:20:20.012Z,13.77
2018-04-18T05:22:47.590Z,14.20
2018-04-18T05:25:15.202Z,15.13
2018-04-18T05:27:42.840Z,14.93
2018-04-18T05:30:11.200Z,21.73
2018-04-18T05:32:38.817Z,15.10
2018-04-18T05:35:06.416Z,15.47
2018-04-18T05:37:34.009Z,19.17
2018-04-18T05:40:02.416Z,22.00
2018-04-18T05:42:30.018Z,18.13
2018-04-18T05:45:03.716Z,16.40
2018-04-18T05:47:31.364Z,15.30
2018-04-18T05:49:58.947Z,14.27
2018-04-18T05:52:26.563Z,14.07
2018-04-18T05:54:54.260Z,14.40
2018-04-18T05:57:21.856Z,18.03
2018-04-18T05:59:50.243Z,16.43
2018-04-18T06:02:39.224Z,15.20
2018-04-18T06:05:06.841Z,15.63
2018-04-18T06:07:34.438Z,18.30
2018-04-18T06:10:02.043Z,16.90
2018-04-18T06:12:29.680Z,18.80
2018-04-18T06:14:57.361Z,21.60
2018-04-18T06:17:24.952Z,18.47
2018-04-18T06:19:52.580Z,20.00
2018-04-18T06:22:20.200Z,18.10
2018-04-18T06:24:47.811Z,17.13
2018-04-18T06:27:15.501Z,31.57
2018-04-18T06:29:43.857Z,18.33
2018-04-18T06:32:11.468Z,20.43
2018-04-18T06:34:39.097Z,24.43
2018-04-18T06:37:06.688Z,26.00
2018-04-18T06:39:35.045Z,20.90
2018-04-18T06:42:02.676Z,19.70
2018-04-18T06:44:30.280Z,27.10
2018-04-18T06:46:58.654Z,26.47
2018-04-18T06:49:27.039Z,21.20
2018-04-18T06:51:55.408Z,22.90
2018-04-18T06:54:23.017Z,29.17
2018-04-18T06:56:52.076Z,25.57
2018-04-18T06:59:27.767Z,25.10
2018-04-18T07:01:55.391Z,29.30
2018-04-18T07:04:23.751Z,22.17
2018-04-18T07:06:51.346Z,25.17
2018-04-18T07:09:18.963Z,21.37
2018-04-18T07:11:46.577Z,23.83
2018-04-18T07:14:14.167Z,22.50
2018-04-18T07:16:41.793Z,24.80
2018-04-18T07:19:09.397Z,21.30
2018-04-18T07:21:37.752Z,25.67
2018-04-18T07:24:05.373Z,26.13
2018-04-18T07:26:33.743Z,27.97
2018-04-18T07:29:02.112Z,29.00
2018-04-18T07:31:29.772Z,23.03
2018-04-18T07:33:57.399Z,22.10
2018-04-18T07:36:25.004Z,20.40
2018-04-18T07:38:52.636Z,21.47
2018-04-18T07:41:20.222Z,23.77
2018-04-18T07:43:47.815Z,23.10
2018-04-18T07:46:15.444Z,24.57
2018-04-18T07:48:43.844Z,23.70
2018-04-18T07:51:12.206Z,23.50
2018-04-18T07:53:58.036Z,19.50
2018-04-18T07:56:25.663Z,24.10
2018-04-18T07:58:54.019Z,26.10
2018-04-18T08:01:21.658Z,21.40
2018-04-18T08:03:49.260Z,23.07
2018-04-18T08:06:17.616Z,20.33
2018-04-18T08:08:45.235Z,22.20
2018-04-18T08:11:12.827Z,22.43
2018-04-18T08:13:40.416Z,23.10
2018-04-18T08:16:08.809Z,25.13
2018-04-18T08:18:37.168Z,21.07
2018-04-18T08:21:05.539Z,24.43
2018-04-18T08:23:33.155Z,21.93
2018-04-18T08:26:00.752Z,21.13
2018-04-18T08:28:28.352Z,21.10
2018-04-18T08:30:56.735Z,22.83
2018-04-18T08:33:24.334Z,19.00
2018-04-18T08:35:51.936Z,22.13
2018-04-18T08:38:20.370Z,25.60
2018-04-18T08:40:48.792Z,25.87
2018-04-18T08:43:16.369Z,22.10
2018-04-18T08:45:44.760Z,20.80
2018-04-18T08:48:12.352Z,19.70
2018-04-18T08:50:39.944Z,23.10
2018-04-18T08:53:07.555Z,17.40
2018-04-18T08:55:35.171Z,26.07
2018-04-18T08:58:02.756Z,19.27
2018-04-18T09:00:31.157Z,20.30
2018-04-18T09:02:58.760Z,19.03
2018-04-18T09:05:26.347Z,17.43
2018-04-18T09:07:54.748Z,17.17
2018-04-18T09:10:28.879Z,16.60
2018-04-18T09:12:56.502Z,17.33
2018-04-18T09:15:24.864Z,16.53
2018-04-18T09:17:52.456Z,18.53
2018-04-18T09:20:20.076Z,15.70
2018-04-18T09:22:47.663Z,15.97
2018-04-18T09:25:16.067Z,17.53
2018-04-18T09:27:43.676Z,14.80
2018-04-18T09:30:11.292Z,12.17
2018-04-18T09:32:38.886Z,13.50
2018-04-18T09:35:06.517Z,14.30
2018-04-18T09:37:34.108Z,14.60
2018-04-18T09:40:01.705Z,13.70
2018-04-18T09:42:45.010Z,16.03
2018-04-18T09:45:12.643Z,17.40
2018-04-18T09:47:40.236Z,15.50
2018-04-18T09:50:07.865Z,14.63
2018-04-18T09:52:35.505Z,13.53
2018-04-18T09:55:03.176Z,14.33
2018-04-18T09:57:30.791Z,13.73
2018-04-18T09:59:58.376Z,14.40
2018-04-18T10:02:29.633Z,9.93
2018-04-18T10:05:02.956Z,7.93
2018-04-18T10:07:30.543Z,11.17
2018-04-18T10:09:58.155Z,7.93
2018-04-18T10:12:25.773Z,9.10
2018-04-18T10:14:53.363Z,6.50
2018-04-18T10:17:21.743Z,9.33
2018-04-18T10:19:49.360Z,11.93
2018-04-18T10:22:17.713Z,14.10
2018-04-18T10:24:45.301Z,8.97
2018-04-18T10:27:12.947Z,8.77
2018-04-18T10:29:40.532Z,8.33
2018-04-18T10:32:08.119Z,9.60
2018-04-18T10:34:36.499Z,8.73
2018-04-18T10:37:04.844Z,10.93
2018-04-18T10:39:32.476Z,9.17
2018-04-18T10:42:00.105Z,9.33
2018-04-18T10:44:28.453Z,6.53
2018-04-18T10:47:02.048Z,9.53
2018-04-18T10:49:29.640Z,7.73
2018-04-18T10:51:58.004Z,8.03
2018-04-18T10:54:26.396Z,9.43
2018-04-18T10:56:54.753Z,8.17
2018-04-18T10:59:22.364Z,7.40
2018-04-18T11:01:49.989Z,10.03
2018-04-18T11:04:18.339Z,7.30
2018-04-18T11:06:46.050Z,6.57
2018-04-18T11:09:13.670Z,6.30
2018-04-18T11:11:41.256Z,5.80
2018-04-18T11:14:09.638Z,9.43
2018-04-18T11:16:38.032Z,7.13
2018-04-18T11:19:05.628Z,7.47
2018-04-18T11:21:33.240Z,8.00
2018-04-18T11:24:01.718Z,7.00
2018-04-18T11:26:30.096Z,8.73
2018-04-18T11:28:58.466Z,7.83
2018-04-18T11:31:30.606Z,6.60
2018-04-18T11:33:59.999Z,7.43
2018-04-18T11:36:27.760Z,8.67
2018-04-18T11:38:55.370Z,6.73
2018-04-18T11:41:23.727Z,8.00
2018-04-18T11:43:51.381Z,7.53
2018-04-18T11:46:19.023Z,7.93
2018-04-18T11:48:46.602Z,7.80
2018-04-18T11:51:14.233Z,7.90
2018-04-18T11:53:41.851Z,7.57
2018-04-18T11:56:10.203Z,8.60
2018-04-18T11:58:38.557Z,8.30
2018-04-18T12:01:09.966Z,7.80
2018-04-18T12:03:38.313Z,8.17
2018-04-18T12:06:05.902Z,8.73
2018-04-18T12:08:34.284Z,7.10
2018-04-18T12:11:02.636Z,6.00
2018-04-18T12:13:30.236Z,5.30
2018-04-18T12:15:57.876Z,5.20
2018-04-18T12:18:26.260Z,6.70
2018-04-18T12:20:54.609Z,6.13
2018-04-18T12:23:22.236Z,6.57
2018-04-18T12:25:49.821Z,7.10
2018-04-18T12:28:17.416Z,4.80
2018-04-18T12:30:45.854Z,5.97
2018-04-18T12:33:14.221Z,5.43
2018-04-18T12:35:41.820Z,7.03
2018-04-18T12:38:09.562Z,4.23
2018-04-18T12:40:37.284Z,5.10
2018-04-18T12:43:15.276Z,4.87
2018-04-18T12:45:43.645Z,5.60
2018-04-18T12:48:11.239Z,9.67
2018-04-18T12:50:55.804Z,4.70
2018-04-18T12:53:23.396Z,4.90
2018-04-18T12:55:58.031Z,5.00
2018-04-18T12:58:25.612Z,6.10
2018-04-18T13:01:01.019Z,4.73
2018-04-18T13:03:28.625Z,5.83
2018-04-18T13:06:07.103Z,5.43
2018-04-18T13:08:34.732Z,6.93
2018-04-18T13:11:02.323Z,5.40
2018-04-18T13:13:29.944Z,7.13
2018-04-18T13:15:57.544Z,7.70
2018-04-18T13:18:26.141Z,4.87
2018-04-18T13:20:53.757Z,5.10
2018-04-18T13:23:29.107Z,6.00
2018-04-18T13:25:56.725Z,4.70
2018-04-18T13:28:25.081Z,4.60
2018-04-18T13:31:04.715Z,6.73
2018-04-18T13:33:32.303Z,5.70
2018-04-18T13:36:03.440Z,6.90
2018-04-18T13:38:31.050Z,5.40
2018-04-18T13:41:00.614Z,5.07
2018-04-18T13:43:28.220Z,5.90
2018-04-18T13:45:56.015Z,4.80
2018-04-18T13:48:23.607Z,4.00
2018-04-18T13:50:51.980Z,4.67
2018-04-18T13:53:23.132Z,5.60
2018-04-18T13:55:51.507Z,5.37
2018-04-18T13:58:19.099Z,6.73
2018-04-18T14:00:46.724Z,8.83
2018-04-18T14:06:08.114Z,5.30
2018-04-18T14:08:35.720Z,6.00
2018-04-18T14:11:03.311Z,6.60
2018-04-18T14:13:30.936Z,4.70
2018-04-18T14:15:58.521Z,6.50
2018-04-18T14:18:26.118Z,7.43
2018-04-18T14:20:53.769Z,8.37
2018-04-18T14:23:21.384Z,7.07
2018-04-18T14:25:48.987Z,7.80
2018-04-18T14:28:16.607Z,6.63
2018-04-18T14:30:44.192Z,9.37
2018-04-18T14:33:12.563Z,8.27
2018-04-18T14:35:40.957Z,9.20
2018-04-18T14:38:09.309Z,8.00
2018-04-18T14:40:37.666Z,9.00
2018-04-18T14:43:05.267Z,8.70
2018-04-18T14:45:33.636Z,11.33
2018-04-18T14:48:01.980Z,10.00
2018-04-18T14:50:29.607Z,12.27
2018-04-18T14:52:57.200Z,9.20
2018-04-18T14:55:24.795Z,7.50
2018-04-18T14:57:53.175Z,7.30
2018-04-18T15:00:21.537Z,7.50
2018-04-18T15:02:56.872Z,7.40
2018-04-18T15:05:27.313Z,8.00
2018-04-18T15:08:02.986Z,6.53
2018-04-18T15:10:30.573Z,6.27
2018-04-18T15:12:58.155Z,6.40
2018-04-18T15:15:25.764Z,7.00
2018-04-18T15:17:54.120Z,7.20
2018-04-18T15:20:21.711Z,6.33
2018-04-18T15:22:49.332Z,6.20
2018-04-18T15:25:16.928Z,6.30
2018-04-18T15:27:45.303Z,5.50
2018-04-18T15:30:12.919Z,6.80
2018-04-18T15:32:40.509Z,6.13
2018-04-18T15:35:08.091Z,8.70
2018-04-18T15:37:36.468Z,7.03
2018-04-18T15:40:04.818Z,5.40
2018-04-18T15:42:32.404Z,5.20
2018-04-18T15:45:01.719Z,5.33
2018-04-18T15:47:29.304Z,5.67
2018-04-18T15:49:56.932Z,6.77
2018-04-18T15:52:24.539Z,6.03
2018-04-18T15:54:52.151Z,5.13
2018-04-18T15:57:20.512Z,5.23
2018-04-18T15:59:48.929Z,5.63
2018-04-18T16:02:16.517Z,6.03
2018-04-18T16:04:44.135Z,6.50
2018-04-18T16:07:12.535Z,4.50
2018-04-18T16:09:40.164Z,5.77
2018-04-18T16:12:08.573Z,5.63
2018-04-18T16:14:36.169Z,6.83
2018-04-18T16:17:03.757Z,5.50
2018-04-18T16:19:32.125Z,5.83
2018-04-18T16:21:59.735Z,6.27
2018-04-18T16:24:27.319Z,5.17
2018-04-18T16:26:54.903Z,6.30
2018-04-18T16:32:20.974Z,5.07
2018-04-18T16:34:49.415Z,5.17
2018-04-18T16:37:17.009Z,5.10
2018-04-18T16:39:45.438Z,6.10
2018-04-18T16:42:13.052Z,5.23
2018-04-18T16:44:41.403Z,5.47
2018-04-18T16:47:08.996Z,4.87
2018-04-18T16:49:37.380Z,6.57
2018-04-18T16:52:06.714Z,5.27
2018-04-18T16:54:34.727Z,5.57
2018-04-18T16:57:02.337Z,5.90
2018-04-18T16:59:29.939Z,5.00
2018-04-18T17:01:58.092Z,7.23
2018-04-18T17:04:25.720Z,8.27
2018-04-18T17:06:53.387Z,7.30
2018-04-18T17:09:21.743Z,6.20
2018-04-18T17:11:49.387Z,7.70
2018-04-18T17:14:16.980Z,6.87
2018-04-18T17:16:44.588Z,5.70
2018-04-18T17:19:12.200Z,6.50
2018-04-18T17:21:39.799Z,6.40
2018-04-18T17:24:07.395Z,6.07
2018-04-18T17:26:35.016Z,5.90
2018-04-18T17:29:02.600Z,5.23
2018-04-18T17:31:30.206Z,5.67
2018-04-18T17:33:57.835Z,4.87
2018-04-18T17:36:26.244Z,9.30
2018-04-18T17:38:53.835Z,4.37
2018-04-18T17:41:21.489Z,4.43
2018-04-18T17:43:49.117Z,4.40
2018-04-18T17:46:17.468Z,4.70
2018-04-18T17:48:45.149Z,9.70
2018-04-18T17:51:12.716Z,4.53
2018-04-18T17:53:41.069Z,3.67
2018-04-18T17:56:08.715Z,4.70
2018-04-18T17:58:36.340Z,4.03
2018-04-18T18:01:03.944Z,4.80
2018-04-18T18:03:31.611Z,4.33
2018-04-18T18:05:59.208Z,4.30
2018-04-18T18:08:27.555Z,5.10
2018-04-18T18:10:55.197Z,5.50
2018-04-18T18:13:22.781Z,4.13
2018-04-18T18:15:50.387Z,5.30
2018-04-18T18:18:18.003Z,11.40
2018-04-18T18:20:45.587Z,4.37
2018-04-18T18:23:13.954Z,4.47
2018-04-18T18:25:42.336Z,4.63
2018-04-18T18:28:10.695Z,4.10
2018-04-18T18:30:38.330Z,6.13
2018-04-18T18:33:05.953Z,3.97
2018-04-18T18:35:36.387Z,4.53
2018-04-18T18:38:03.993Z,6.63
2018-04-18T18:40:31.639Z,4.23
2018-04-18T18:42:59.212Z,4.43
2018-04-18T18:45:26.796Z,5.93
2018-04-18T18:47:54.418Z,5.83
2018-04-18T18:50:22.003Z,5.17
2018-04-18T18:52:50.375Z,4.13
2018-04-18T18:55:17.976Z,4.97
2018-04-18T18:57:46.323Z,5.20
2018-04-18T19:00:14.069Z,5.60
2018-04-18T19:02:42.033Z,6.30
2018-04-18T19:05:09.615Z,5.80
2018-04-18T19:07:37.213Z,7.43
2018-04-18T19:10:05.587Z,5.50
2018-04-18T19:12:33.944Z,5.93
2018-04-18T19:15:01.541Z,6.07
2018-04-18T19:17:29.166Z,8.10
2018-04-18T19:19:56.753Z,6.17
2018-04-18T19:22:25.095Z,6.13
2018-04-18T19:24:52.696Z,6.90
2018-04-18T19:27:21.050Z,5.87
2018-04-18T19:29:48.638Z,9.60
2018-04-18T19:32:16.259Z,6.70
2018-04-18T19:34:43.841Z,5.90
2018-04-18T19:37:12.203Z,5.73
2018-04-18T19:39:39.868Z,7.03
2018-04-18T19:42:07.448Z,5.57
2018-04-18T19:44:35.796Z,6.00
2018-04-18T19:47:03.426Z,6.30
2018-04-18T19:49:31.024Z,6.90
2018-04-18T19:51:58.621Z,9.93
2018-04-18T19:54:27.003Z,5.80
2018-04-18T19:56:55.369Z,5.40
2018-04-18T19:59:23.718Z,5.77
2018-04-18T20:01:51.332Z,5.70
2018-04-18T20:04:18.928Z,6.63
2018-04-18T20:06:46.576Z,6.70
2018-04-18T20:09:14.207Z,9.53
2018-04-18T20:11:41.823Z,6.53
2018-04-18T20:14:09.407Z,6.57
2018-04-18T20:16:37.794Z,6.50
2018-04-18T20:19:06.162Z,7.57
2018-04-18T20:21:33.774Z,6.50
2018-04-18T20:24:01.385Z,6.83
2018-04-18T20:26:28.990Z,6.70
2018-04-18T20:28:56.589Z,6.80
2018-04-18T20:31:24.206Z,6.37
2018-04-18T20:33:51.806Z,8.07
2018-04-18T20:36:19.427Z,7.27
2018-04-18T20:38:47.127Z,6.37
2018-04-18T20:41:14.712Z,6.43
2018-04-18T20:43:42.298Z,6.83
2018-04-18T20:46:09.915Z,8.37
2018-04-18T20:48:37.524Z,6.73
2018-04-18T20:51:05.149Z,6.53
2018-04-18T20:53:32.808Z,7.90
2018-04-18T20:56:00.428Z,6.93
2018-04-18T20:58:28.027Z,6.40
2018-04-18T21:00:55.668Z,8.27
2018-04-18T21:03:23.254Z,7.93
2018-04-18T21:05:50.842Z,9.03
2018-04-18T21:08:19.488Z,7.00
2018-04-18T21:10:47.096Z,7.63
2018-04-18T21:13:14.744Z,8.93
2018-04-18T21:15:43.124Z,6.30
2018-04-18T21:18:11.468Z,7.60
2018-04-18T21:20:39.056Z,6.33
2018-04-18T21:23:06.715Z,7.67
2018-04-18T21:25:35.074Z,9.07
2018-04-18T21:28:02.660Z,7.80
2018-04-18T21:30:31.053Z,6.60
2018-04-18T21:32:59.400Z,7.70
2018-04-18T21:35:26.992Z,8.10
2018-04-18T21:37:55.429Z,7.27
2018-04-18T21:40:22.995Z,8.73
2018-04-18T21:42:50.594Z,7.60
2018-04-18T21:45:18.201Z,7.00
2018-04-18T21:47:45.799Z,6.70
2018-04-18T21:50:14.159Z,7.30
2018-04-18T21:52:41.920Z,7.60
2018-04-18T21:55:09.539Z,7.27
2018-04-18T21:57:37.155Z,7.80
2018-04-18T22:14:38.621Z,9.50
2018-04-18T22:17:07.017Z,8.80
2018-04-18T22:19:34.618Z,9.03
2018-04-18T22:22:02.262Z,8.77
2018-04-18T22:24:29.856Z,9.77
2018-04-18T22:26:57.447Z,10.70
2018-04-18T22:29:25.820Z,9.37
2018-04-18T22:31:54.163Z,11.13
2018-04-18T22:34:21.750Z,9.33
2018-04-18T22:36:50.149Z,13.23
2018-04-18T22:39:17.732Z,9.80
2018-04-18T22:41:45.404Z,8.37
2018-04-18T22:44:13.044Z,8.50
2018-04-18T22:46:40.625Z,9.83
2018-04-18T22:49:08.212Z,10.17
2018-04-18T22:51:35.832Z,11.60
2018-04-18T22:54:03.425Z,11.20
2018-04-18T22:56:31.004Z,11.00
2018-04-18T22:58:58.749Z,10.50
2018-04-18T23:01:26.347Z,10.33
2018-04-18T23:03:54.704Z,12.43
2018-04-18T23:06:22.333Z,10.57
2018-04-18T23:08:49.924Z,14.63
2018-04-18T23:11:17.555Z,12.90
2018-04-18T23:13:45.184Z,11.07
2018-04-18T23:16:13.556Z,13.27
2018-04-18T23:18:41.915Z,11.63
2018-04-18T23:21:09.542Z,13.40
2018-04-18T23:23:37.200Z,11.20
2018-04-18T23:26:04.792Z,10.77
2018-04-18T23:28:32.422Z,13.20
2018-04-18T23:31:00.023Z,12.23
2018-04-18T23:33:27.612Z,11.00
2018-04-18T23:35:55.231Z,12.60
2018-04-18T23:38:22.817Z,11.83
2018-04-18T23:40:51.180Z,12.83
2018-04-18T23:43:18.813Z,13.87
2018-04-18T23:45:46.416Z,11.73
2018-04-18T23:48:14.772Z,12.00
2018-04-18T23:50:42.388Z,13.33
2018-04-18T23:53:09.989Z,12.23
2018-04-18T23:55:37.582Z,13.10
2018-04-18T23:58:05.964Z,13.60
